Avoca, Arkansas
Current Conditions -  °F | °C
As of 11:44 PM on Wednesday 17 Dec 2014 (Local Time) from KROG Reporting Station
Overcast Overcast  
Wind Chill: -1°   Ceiling: 2800
Heat Index:   Visibility: 10mi
Dew Point:   Wind: 6mph
Humidity: 93%   Direction: 130°SE
Pressure: 30.19"   Gusts: NA
Location:  36.4°N, 94.07°W
Report Text: KROG 180544Z AUTO 13005KT 10SM FEW008 SCT012 OVC028 02/01 A3019 RMK AO2 TSNO
Loading
Personal Weather Stations






























Interactive Weather Map New forecast layout! Learn more

10-Day Weather Forecast

Advertisements
Track Severe Weather on mobile